Time;durP1;ratioP1;P1;durP2;ratioP2;P2;SDS_P1;SDS_P2;PMS_P1;PMS_P2;Temp;Humidity;BMP_temperature;BMP_pressure;BME280_temperature;BME280_humidity;BME280_pressure;Samples;Min_cycle;Max_cycle;Signal;HPM_P1;HPM_P2
2023/04/03 00:00:11;;;;;;;16.83;8.40;;;;;;;0.76;100.00;95997.88;5038583;28;20493;-74
2023/04/03 00:02:56;;;;;;;15.55;8.15;;;;;;;0.73;100.00;96008.59;5038242;28;20484;-74
2023/04/03 00:05:22;;;;;;;13.98;7.72;;;;;;;0.73;100.00;96006.00;5045178;28;20116;-74
2023/04/03 00:07:49;;;;;;;13.13;7.55;;;;;;;0.72;100.00;96001.84;5046314;28;20658;-74
2023/04/03 00:10:15;;;;;;;13.05;7.63;;;;;;;0.72;100.00;96007.03;5035381;28;20049;-74
2023/04/03 00:12:41;;;;;;;12.98;7.75;;;;;;;0.72;100.00;95996.66;5038814;28;20099;-76
2023/04/03 00:15:07;;;;;;;14.38;7.20;;;;;;;0.63;100.00;96003.00;5034412;28;20045;-76
2023/04/03 00:17:32;;;;;;;13.75;7.60;;;;;;;0.68;100.00;96005.81;5035824;28;20493;-75
2023/04/03 00:19:58;;;;;;;13.43;8.05;;;;;;;0.69;100.00;96004.81;5041999;28;20099;-75
2023/04/03 00:22:26;;;;;;;12.75;7.90;;;;;;;0.66;100.00;96002.59;5038828;28;20054;-76
2023/04/03 00:24:52;;;;;;;14.32;7.93;;;;;;;0.57;100.00;96003.78;5032854;28;20040;-75
2023/04/03 00:27:17;;;;;;;11.98;7.57;;;;;;;0.66;100.00;96002.59;5048699;28;20455;-76
2023/04/03 00:29:43;;;;;;;14.00;8.35;;;;;;;0.75;100.00;96005.81;5033375;28;20095;-75
2023/04/03 00:32:08;;;;;;;13.98;8.20;;;;;;;0.69;100.00;96004.81;5043700;28;20064;-75
2023/04/03 00:34:34;;;;;;;13.75;8.30;;;;;;;0.55;100.00;96010.94;5037385;28;20037;-75
2023/04/03 00:36:59;;;;;;;13.50;7.55;;;;;;;0.52;100.00;96002.56;5044637;28;20045;-75
2023/04/03 00:39:25;;;;;;;14.25;7.53;;;;;;;0.54;100.00;96014.53;5032375;28;20543;-75
2023/04/03 00:41:50;;;;;;;16.50;8.07;;;;;;;0.55;100.00;96000.56;5037249;28;20584;-76
2023/04/03 00:44:28;;;;;;;16.50;8.40;;;;;;;0.68;100.00;96005.81;5036166;28;20133;-75
2023/04/03 00:46:54;;;;;;;16.27;7.95;;;;;;;0.61;100.00;96005.78;5036684;28;20045;-75
2023/04/03 00:49:19;;;;;;;15.77;8.63;;;;;;;0.68;100.00;96005.81;5033472;28;20502;-76
2023/04/03 00:51:45;;;;;;;15.15;8.25;;;;;;;0.67;100.00;96004.22;5040966;28;20079;-75
2023/04/03 00:54:12;;;;;;;13.68;8.35;;;;;;;0.75;100.00;96006.63;5035097;28;20044;-75
2023/04/03 00:56:38;;;;;;;14.32;8.02;;;;;;;0.54;100.00;95999.00;5031546;28;20047;-75
2023/04/03 00:59:10;;;;;;;15.23;8.20;;;;;;;0.60;100.00;96003.38;5038739;28;20056;-75
2023/04/03 01:01:37;;;;;;;11.05;7.50;;;;;;;0.64;100.00;95999.41;5036671;28;20429;-75
2023/04/03 01:04:05;;;;;;;16.02;7.57;;;;;;;0.63;100.00;95998.63;5036213;28;20041;-75
2023/04/03 01:06:36;;;;;;;15.50;7.85;;;;;;;0.57;100.00;96008.97;5033875;28;20049;-75
2023/04/03 01:09:02;;;;;;;13.52;8.00;;;;;;;0.60;100.00;96003.38;5042236;28;20045;-75
2023/04/03 01:11:27;;;;;;;15.50;7.82;;;;;;;0.59;100.00;96012.13;5047165;28;20098;-75
2023/04/03 01:13:53;;;;;;;10.38;6.65;;;;;;;0.52;100.00;96010.34;5042153;28;20034;-75
2023/04/03 01:16:19;;;;;;;12.88;7.95;;;;;;;0.57;100.00;96003.78;5038663;28;20041;-75
2023/04/03 01:18:45;;;;;;;14.23;8.07;;;;;;;0.67;100.00;96004.22;5033652;28;20037;-75
2023/04/03 01:21:26;;;;;;;13.00;8.05;;;;;;;0.62;100.00;96009.19;5034849;28;20045;-75
2023/04/03 01:24:27;;;;;;;14.93;7.70;;;;;;;0.71;100.00;96013.19;5036097;28;20382;-75
2023/04/03 01:26:52;;;;;;;13.43;7.63;;;;;;;0.71;100.00;96015.00;5049371;28;20132;-75
2023/04/03 01:29:19;;;;;;;13.95;7.38;;;;;;;0.66;100.00;96018.13;5047006;28;20052;-76
2023/04/03 01:31:59;;;;;;;13.00;7.60;;;;;;;0.72;100.00;96012.22;5031806;28;20045;-76
2023/04/03 01:34:27;;;;;;;14.70;7.70;;;;;;;0.66;100.00;96018.13;5036434;28;20045;-75
2023/04/03 01:36:52;;;;;;;12.88;7.53;;;;;;;0.56;100.00;96017.72;5031043;28;20052;-75
2023/04/03 01:39:19;;;;;;;14.05;7.95;;;;;;;0.65;100.00;96016.56;5037215;28;20056;-75
2023/04/03 01:41:45;;;;;;;12.20;7.95;;;;;;;0.68;100.00;96016.97;5031566;28;20095;-75
2023/04/03 01:44:11;;;;;;;15.10;7.75;;;;;;;0.71;100.00;96015.78;5040562;28;20037;-75
2023/04/03 01:46:37;;;;;;;15.70;8.60;;;;;;;0.68;100.00;96021.34;5031853;28;20111;-75
2023/04/03 01:49:03;;;;;;;14.85;7.72;;;;;;;0.68;100.00;96021.34;5034341;28;20041;-74
2023/04/03 01:51:29;;;;;;;17.17;9.20;;;;;;;0.76;100.00;96013.41;5040620;28;20049;-74
2023/04/03 01:53:55;;;;;;;16.15;8.15;;;;;;;0.64;100.00;96014.97;5032490;28;20054;-75
2023/04/03 01:56:20;;;;;;;17.88;8.90;;;;;;;0.71;100.00;96015.78;5035606;28;20112;-75
2023/04/03 01:58:46;;;;;;;16.75;8.73;;;;;;;0.66;100.00;96005.19;5030853;28;20671;-76
2023/04/03 02:01:12;;;;;;;18.25;8.73;;;;;;;0.75;100.00;96009.22;5035291;28;20049;-76
2023/04/03 02:03:37;;;;;;;14.63;8.90;;;;;;;0.82;100.00;96017.81;5030455;28;20409;-75
2023/04/03 02:06:03;;;;;;;18.23;9.55;;;;;;;0.74;100.00;96002.44;5032418;28;20420;-76
2023/04/03 02:08:29;;;;;;;15.77;8.48;;;;;;;0.79;100.00;96012.22;5036058;28;20115;-76
2023/04/03 02:10:54;;;;;;;15.25;8.27;;;;;;;0.71;100.00;96008.00;5048752;28;20041;-76
2023/04/03 02:13:20;;;;;;;14.63;8.65;;;;;;;0.70;100.00;96003.81;5047311;28;20037;-76
2023/04/03 02:15:46;;;;;;;17.80;8.65;;;;;;;0.76;100.00;96008.25;5043868;28;20045;-76
2023/04/03 02:18:12;;;;;;;17.65;9.85;;;;;;;0.67;100.00;96009.38;5050072;28;20041;-76
2023/04/03 02:20:38;;;;;;;18.17;9.68;;;;;;;0.81;100.00;96011.03;5036452;28;20045;-75
2023/04/03 02:23:05;;;;;;;16.33;8.95;;;;;;;0.78;100.00;96011.41;5031025;28;20179;-75
2023/04/03 02:25:31;;;;;;;18.05;8.85;;;;;;;0.85;100.00;96009.66;5037783;28;20122;-75
2023/04/03 02:27:57;;;;;;;15.30;9.35;;;;;;;0.83;100.00;96003.88;5047254;28;20041;-76
2023/04/03 02:30:23;;;;;;;17.75;10.30;;;;;;;0.84;100.00;95997.69;5043674;28;20405;-76
2023/04/03 02:32:48;;;;;;;18.67;9.60;;;;;;;0.86;100.00;95993.13;5030177;28;20037;-76
2023/04/03 02:35:14;;;;;;;16.27;8.82;;;;;;;0.84;100.00;95992.50;5036422;28;20052;-76
2023/04/03 02:37:40;;;;;;;15.68;7.93;;;;;;;0.82;100.00;95997.09;5030822;28;20041;-75
2023/04/03 02:40:06;;;;;;;14.85;7.13;;;;;;;0.77;100.00;95989.09;5035903;28;20041;-75
2023/04/03 02:42:32;;;;;;;16.10;8.88;;;;;;;0.84;100.00;95995.09;5031506;28;20115;-75
2023/04/03 02:45:00;;;;;;;14.45;8.43;;;;;;;0.83;100.00;95993.50;5039311;28;20504;-76
2023/04/03 02:47:27;;;;;;;14.30;8.25;;;;;;;0.77;100.00;96012.41;5038302;28;20099;-76
2023/04/03 02:49:52;;;;;;;15.38;8.40;;;;;;;0.81;100.00;96005.84;5039515;28;20033;-76
2023/04/03 02:52:19;;;;;;;14.32;7.78;;;;;;;0.86;100.00;96008.66;5035602;28;20067;-76
2023/04/03 02:54:44;;;;;;;13.23;6.90;;;;;;;0.85;100.00;96007.06;5035167;28;20056;-76
2023/04/03 02:57:10;;;;;;;13.32;7.43;;;;;;;0.88;100.00;95999.88;5035061;28;20041;-75
2023/04/03 02:59:40;;;;;;;13.57;7.80;;;;;;;0.92;100.00;96003.66;5031063;28;20511;-75
2023/04/03 03:02:07;;;;;;;11.75;6.80;;;;;;;0.84;100.00;96004.66;5037809;28;20041;-75
2023/04/03 03:04:33;;;;;;;12.35;6.82;;;;;;;0.84;100.00;95999.47;5035784;28;20102;-75
2023/04/03 03:06:58;;;;;;;12.90;6.70;;;;;;;0.90;100.00;96008.25;5032467;28;20045;-75
2023/04/03 03:09:25;;;;;;;13.70;6.85;;;;;;;0.76;100.00;96004.81;5039044;28;20037;-75
2023/04/03 03:11:51;;;;;;;12.18;6.65;;;;;;;0.83;100.00;95998.69;5035880;28;20034;-75
2023/04/03 03:14:16;;;;;;;14.13;7.18;;;;;;;0.83;100.00;96014.25;5029370;28;20046;-75
2023/04/03 03:16:42;;;;;;;11.95;6.43;;;;;;;0.80;100.00;96009.41;5030381;28;20037;-75
2023/04/03 03:19:07;;;;;;;9.75;6.40;;;;;;;0.77;100.00;96012.41;5029563;28;20059;-75
2023/04/03 03:21:33;;;;;;;13.32;7.13;;;;;;;0.81;100.00;96013.63;5032091;28;20048;-74
2023/04/03 03:23:58;;;;;;;12.50;6.75;;;;;;;0.89;100.00;96011.84;5029242;28;20042;-74
2023/04/03 03:26:24;;;;;;;10.68;6.43;;;;;;;0.89;100.00;96004.06;5034411;28;20052;-75
2023/04/03 03:28:50;;;;;;;10.15;6.45;;;;;;;0.76;100.00;96010.81;5029090;28;20045;-75
2023/04/03 03:31:16;;;;;;;11.55;6.32;;;;;;;0.76;100.00;96018.59;5036827;28;20778;-75
2023/04/03 03:33:41;;;;;;;10.15;6.03;;;;;;;0.80;100.00;96012.00;5030368;28;20049;-75
2023/04/03 03:36:07;;;;;;;11.80;6.43;;;;;;;0.76;100.00;96005.66;5040084;28;20061;-75
2023/04/03 03:38:32;;;;;;;11.93;6.55;;;;;;;0.82;100.00;96012.63;5029030;28;20541;-75
2023/04/03 03:40:58;;;;;;;9.23;5.90;;;;;;;0.82;100.00;96004.84;5038212;28;20041;-75
2023/04/03 03:43:24;;;;;;;12.18;6.15;;;;;;;0.77;100.00;96015.00;5034739;28;20041;-75
2023/04/03 03:45:52;;;;;;;9.40;6.07;;;;;;;0.76;100.00;96013.41;5036578;28;20497;-74
2023/04/03 03:48:17;;;;;;;9.20;5.32;;;;;;;0.83;100.00;96013.41;5031027;28;20091;-75
2023/04/03 03:50:43;;;;;;;8.82;5.72;;;;;;;0.78;100.00;96011.41;5032598;28;20574;-75
2023/04/03 03:53:08;;;;;;;10.73;5.57;;;;;;;0.74;100.00;96020.56;5042756;28;20041;-75
2023/04/03 03:55:34;;;;;;;9.60;5.15;;;;;;;0.74;100.00;96015.38;5036853;28;20072;-75
2023/04/03 03:58:00;;;;;;;11.93;5.80;;;;;;;0.67;100.00;96020.53;5029306;28;20080;-75
2023/04/03 04:00:27;;;;;;;9.88;5.30;;;;;;;0.78;100.00;96014.00;5037323;28;20038;-75
2023/04/03 04:02:52;;;;;;;12.10;5.97;;;;;;;0.81;100.00;96015.41;5034573;28;20516;-75
2023/04/03 04:05:18;;;;;;;9.07;6.03;;;;;;;0.74;100.00;96010.22;5036497;28;20048;-76
2023/04/03 04:07:43;;;;;;;10.57;5.50;;;;;;;0.81;100.00;96012.81;5038744;28;20029;-75
2023/04/03 04:10:10;;;;;;;9.68;4.95;;;;;;;0.79;100.00;95997.47;5029909;28;20087;-75
2023/04/03 04:12:35;;;;;;;9.48;5.55;;;;;;;0.81;100.00;96005.84;5043823;28;20052;-76
2023/04/03 04:15:02;;;;;;;9.52;5.13;;;;;;;0.83;100.00;96003.88;5043778;28;20052;-76
2023/04/03 04:17:27;;;;;;;15.07;5.88;;;;;;;0.76;100.00;96013.41;5033724;28;20061;-75
2023/04/03 04:19:53;;;;;;;9.70;5.15;;;;;;;0.79;100.00;96007.84;5031854;28;20042;-76
2023/04/03 04:22:18;;;;;;;12.35;5.15;;;;;;;0.84;100.00;96021.00;5046250;28;20045;-75
2023/04/03 04:24:44;;;;;;;12.27;5.75;;;;;;;0.82;100.00;96012.63;5048077;28;20420;-75
2023/04/03 04:27:10;;;;;;;9.93;5.60;;;;;;;0.84;100.00;96010.63;5043632;28;20567;-76
2023/04/03 04:29:37;;;;;;;9.02;5.60;;;;;;;0.85;100.00;96017.41;5034306;28;20514;-75
2023/04/03 04:32:03;;;;;;;15.00;5.97;;;;;;;0.76;100.00;96013.41;5040768;28;20505;-75
2023/04/03 04:34:29;;;;;;;8.77;5.53;;;;;;;0.78;100.00;96021.78;5044180;28;20034;-75
2023/04/03 04:36:55;;;;;;;8.25;5.50;;;;;;;0.83;100.00;96024.59;5033308;28;20552;-75
2023/04/03 04:39:21;;;;;;;11.52;6.20;;;;;;;0.82;100.00;96020.41;5032431;28;20037;-75
2023/04/03 04:41:46;;;;;;;9.48;5.22;;;;;;;0.78;100.00;96024.38;5036494;28;20045;-74
2023/04/03 04:44:12;;;;;;;12.90;5.72;;;;;;;0.81;100.00;96016.22;5037245;28;20497;-74
2023/04/03 04:46:37;;;;;;;9.07;5.40;;;;;;;0.76;100.00;96021.19;5039711;28;20045;-75
2023/04/03 04:49:03;;;;;;;11.68;5.50;;;;;;;0.78;100.00;96021.78;5037615;28;20501;-75
2023/04/03 04:51:28;;;;;;;9.27;5.18;;;;;;;0.81;100.00;96029.16;5036912;28;20417;-75
2023/04/03 04:53:54;;;;;;;10.35;5.32;;;;;;;0.81;100.00;96026.56;5033118;28;20056;-74
2023/04/03 04:56:20;;;;;;;11.90;5.53;;;;;;;0.85;100.00;96016.63;5041904;28;20053;-75
2023/04/03 04:58:46;;;;;;;10.70;5.65;;;;;;;0.78;100.00;96026.97;5033979;28;20033;-75
2023/04/03 05:01:11;;;;;;;10.10;5.18;;;;;;;0.76;100.00;96026.38;5037737;28;20037;-74
2023/04/03 05:03:37;;;;;;;10.85;5.40;;;;;;;0.81;100.00;96026.56;5033680;28;20041;-75
2023/04/03 05:06:03;;;;;;;8.73;5.72;;;;;;;0.77;100.00;96027.94;5039180;28;20091;-75
2023/04/03 05:08:29;;;;;;;9.82;5.57;;;;;;;0.73;100.00;96029.31;5045915;28;20041;-76
2023/04/03 05:10:54;;;;;;;10.57;5.50;;;;;;;0.77;100.00;96027.16;5035448;28;20424;-74
2023/04/03 05:13:20;;;;;;;13.27;6.45;;;;;;;0.83;100.00;96028.97;5038468;28;20049;-76
2023/04/03 05:15:46;;;;;;;12.23;5.72;;;;;;;0.78;100.00;96031.34;5035468;28;20038;-75
2023/04/03 05:18:12;;;;;;;8.95;5.47;;;;;;;0.76;100.00;96028.97;5039695;28;20044;-75
2023/04/03 05:20:38;;;;;;;8.55;5.20;;;;;;;0.81;100.00;96042.13;5041794;28;20704;-76
2023/04/03 05:23:04;;;;;;;9.13;5.20;;;;;;;0.75;100.00;96032.53;5037820;28;20532;-77
2023/04/03 05:25:29;;;;;;;9.18;5.43;;;;;;;0.74;100.00;96036.13;5033965;28;20548;-76
2023/04/03 05:27:55;;;;;;;6.93;4.68;;;;;;;0.79;100.00;96041.53;5033661;28;20416;-76
2023/04/03 05:30:21;;;;;;;8.55;5.10;;;;;;;0.78;100.00;96036.53;5033654;28;20082;-76
2023/04/03 05:32:47;;;;;;;8.73;4.60;;;;;;;0.73;100.00;96029.31;5045415;28;20049;-76
2023/04/03 05:35:13;;;;;;;7.05;4.72;;;;;;;0.69;100.00;96033.31;5040675;28;20099;-76
2023/04/03 05:37:39;;;;;;;9.70;4.72;;;;;;;0.81;100.00;96033.56;5039604;28;20398;-76
2023/04/03 05:40:05;;;;;;;9.15;5.25;;;;;;;0.79;100.00;96036.34;5033266;28;20045;-77
2023/04/03 05:42:31;;;;;;;10.80;4.68;;;;;;;0.93;100.00;96041.56;5042676;28;20037;-76
2023/04/03 05:44:57;;;;;;;9.07;4.70;;;;;;;0.90;100.00;96039.38;5040747;28;20394;-76
2023/04/03 05:47:22;;;;;;;8.82;4.85;;;;;;;0.89;100.00;96040.34;5041001;28;20045;-76
2023/04/03 05:49:48;;;;;;;8.73;4.60;;;;;;;0.96;100.00;96048.94;5040289;28;20034;-78
2023/04/03 05:52:38;;;;;;;10.43;4.95;;;;;;;0.99;100.00;96045.94;5048433;28;20557;-76
2023/04/03 05:55:04;;;;;;;9.35;4.72;;;;;;;1.02;100.00;96048.16;5030671;28;20053;-77
2023/04/03 05:57:30;;;;;;;9.10;5.07;;;;;;;0.94;100.00;96045.75;5037337;28;20052;-76
2023/04/03 05:59:55;;;;;;;9.40;4.90;;;;;;;0.95;100.00;96047.34;5038293;28;20037;-76
2023/04/03 06:02:24;;;;;;;9.02;4.70;;;;;;;0.98;100.00;96052.16;5048511;28;20135;-76
2023/04/03 06:04:50;;;;;;;11.73;4.93;;;;;;;1.01;100.00;96046.56;5035688;28;20041;-76
2023/04/03 06:07:20;;;;;;;9.25;4.95;;;;;;;1.04;100.00;96048.78;5038352;28;20041;-76
2023/04/03 06:09:47;;;;;;;9.40;4.30;;;;;;;1.12;100.00;96053.78;5035222;28;20045;-76
2023/04/03 06:12:13;;;;;;;13.60;5.22;;;;;;;1.04;100.00;96056.53;5032434;28;20507;-75
2023/04/03 06:14:38;;;;;;;9.75;5.07;;;;;;;0.94;100.00;96056.13;5041507;28;20040;-76
2023/04/03 06:17:05;;;;;;;9.45;4.90;;;;;;;1.04;100.00;96051.38;5030538;28;20046;-73
2023/04/03 06:19:31;;;;;;;11.65;5.45;;;;;;;0.97;100.00;96055.72;5035291;28;20116;-73
2023/04/03 06:21:57;;;;;;;10.32;5.50;;;;;;;1.01;100.00;96057.72;5029721;28;20041;-74
2023/04/03 06:24:23;;;;;;;9.00;4.90;;;;;;;1.03;100.00;96057.53;5037506;28;20041;-75
2023/04/03 06:26:51;;;;;;;11.20;5.22;;;;;;;1.12;100.00;96058.16;5043386;28;20351;-76
2023/04/03 06:29:17;;;;;;;8.23;4.82;;;;;;;1.16;100.00;96060.16;5037119;28;20107;-76
2023/04/03 06:31:43;;;;;;;10.90;4.75;;;;;;;1.20;100.00;96061.34;5034456;28;20092;-75
2023/04/03 06:34:09;;;;;;;10.05;5.25;;;;;;;1.27;100.00;96055.41;5037419;28;20049;-75
2023/04/03 06:36:34;;;;;;;8.95;5.03;;;;;;;1.26;100.00;96059.00;5039232;28;20052;-75
2023/04/03 06:39:01;;;;;;;10.65;5.22;;;;;;;1.32;100.00;96060.78;5038981;28;20037;-75
2023/04/03 06:41:27;;;;;;;9.07;5.30;;;;;;;1.40;100.00;96063.19;5034439;28;20045;-75
2023/04/03 06:43:52;;;;;;;8.60;5.15;;;;;;;1.31;100.00;96059.22;5037329;28;20047;-75
2023/04/03 06:46:20;;;;;;;7.68;4.68;;;;;;;1.36;100.00;96059.41;5031511;28;20049;-76
2023/04/03 06:48:46;;;;;;;9.25;4.88;;;;;;;1.48;100.00;96072.56;5037180;28;20158;-76
2023/04/03 06:51:19;;;;;;;7.88;4.95;;;;;;;1.54;100.00;96064.81;5039811;28;20037;-75
2023/04/03 06:53:47;;;;;;;9.38;5.60;;;;;;;1.46;100.00;96061.63;5059902;28;20179;-76
2023/04/03 06:56:13;;;;;;;9.80;4.65;;;;;;;1.41;100.00;96067.41;5041247;28;20076;-75
2023/04/03 06:58:40;;;;;;;8.13;4.90;;;;;;;1.54;100.00;96056.25;5045382;28;20033;-75
2023/04/03 07:01:06;;;;;;;11.80;5.15;;;;;;;1.45;100.00;96068.59;5039785;28;20037;-76
2023/04/03 07:03:31;;;;;;;7.70;4.68;;;;;;;1.65;100.00;96068.63;5040762;28;20056;-75
2023/04/03 07:05:57;;;;;;;8.63;4.55;;;;;;;1.64;100.00;96076.59;5038298;28;20639;-75
2023/04/03 07:08:23;;;;;;;6.95;4.40;;;;;;;1.73;100.00;96080.59;5039781;28;20041;-75
2023/04/03 07:10:50;;;;;;;9.23;5.00;;;;;;;1.76;100.00;96080.19;5036097;28;20455;-75
2023/04/03 07:13:15;;;;;;;9.70;4.93;;;;;;;1.85;100.00;96084.19;5035092;28;20560;-75
2023/04/03 07:15:41;;;;;;;9.35;4.57;;;;;;;1.82;100.00;96084.56;5037047;28;20053;-75
2023/04/03 07:18:07;;;;;;;8.57;4.47;;;;;;;1.82;100.00;96084.56;5036249;28;20053;-75
2023/04/03 07:20:34;;;;;;;7.50;4.53;;;;;;;1.90;100.00;96086.97;5036118;28;20041;-75
2023/04/03 07:23:01;;;;;;;11.93;4.88;;;;;;;1.94;100.00;96082.19;5035009;28;20072;-75
2023/04/03 07:25:28;;;;;;;9.55;4.90;;;;;;;1.85;100.00;96089.41;5040076;28;20389;-75
2023/04/03 07:27:54;;;;;;;9.77;5.00;;;;;;;2.11;100.00;96085.16;5038135;28;20051;-75
2023/04/03 07:30:20;;;;;;;9.18;4.88;;;;;;;2.28;100.00;96092.56;5037345;28;20041;-76
2023/04/03 07:32:46;;;;;;;8.18;4.63;;;;;;;2.28;100.00;96097.75;5031337;28;20091;-75
2023/04/03 07:35:11;;;;;;;7.47;5.00;;;;;;;2.37;100.00;96091.31;5038315;28;20401;-75
2023/04/03 07:37:37;;;;;;;9.48;5.10;;;;;;;2.35;100.00;96096.72;5030195;28;20099;-75
2023/04/03 07:40:03;;;;;;;9.02;4.93;;;;;;;2.28;100.00;96098.53;5031334;28;20057;-75
2023/04/03 07:42:29;;;;;;;9.50;4.60;;;;;;;2.44;100.00;96105.09;5041057;28;20049;-74
2023/04/03 07:44:55;;;;;;;7.53;4.50;;;;;;;2.50;100.00;96100.91;5037120;28;20072;-75
2023/04/03 07:47:20;;;;;;;8.77;4.63;;;;;;;2.46;100.00;96104.91;5040713;28;20045;-75
2023/04/03 07:49:46;;;;;;;7.30;4.50;;;;;;;2.10;100.00;96106.97;5051732;28;20045;-75
2023/04/03 07:52:14;;;;;;;7.57;4.50;;;;;;;2.22;100.00;96107.94;5044238;28;20504;-75
2023/04/03 07:54:40;;;;;;;11.20;5.95;;;;;;;2.22;100.00;96115.72;5041662;28;20412;-75
2023/04/03 07:57:06;;;;;;;9.27;4.70;;;;;;;2.42;100.00;96125.31;5037407;28;20049;-74
2023/04/03 07:59:32;;;;;;;7.82;4.68;;;;;;;2.17;100.00;96118.13;5043197;28;20041;-75
2023/04/03 08:01:57;;;;;;;8.48;5.07;;;;;;;2.31;100.00;96110.31;5037787;28;20053;-75
2023/04/03 08:04:23;;;;;;;9.85;5.43;;;;;;;2.16;100.00;96116.53;5045931;28;20041;-75
2023/04/03 08:06:49;;;;;;;8.85;4.97;;;;;;;2.16;100.00;96121.72;5046617;28;20037;-74
2023/04/03 08:09:15;;;;;;;9.27;5.20;;;;;;;2.21;100.00;96124.53;5047202;28;20488;-75
2023/04/03 08:11:41;;;;;;;11.32;5.40;;;;;;;2.18;100.00;96117.13;5039816;28;20037;-75
2023/04/03 08:14:07;;;;;;;8.38;5.18;;;;;;;2.27;100.00;96112.53;5035340;28;20041;-75
2023/04/03 08:16:32;;;;;;;10.98;5.80;;;;;;;2.27;100.00;96122.94;5037741;28;20497;-75
2023/04/03 08:18:59;;;;;;;9.75;5.68;;;;;;;2.36;100.00;96110.53;5074015;28;20097;-75
2023/04/03 08:21:26;;;;;;;10.93;5.85;;;;;;;2.49;100.00;96118.28;5073333;28;20021;-75
2023/04/03 08:23:52;;;;;;;10.40;6.20;;;;;;;2.29;100.00;96114.94;5075458;28;20041;-75
2023/04/03 08:26:21;;;;;;;9.90;5.68;;;;;;;2.56;100.00;96124.28;5072264;28;20060;-75
2023/04/03 08:28:47;;;;;;;11.60;6.30;;;;;;;2.55;100.00;96120.06;5072348;28;20029;-76
2023/04/03 08:31:15;;;;;;;10.55;5.70;;;;;;;2.17;100.00;96125.94;5085508;28;20092;-74
2023/04/03 08:33:41;;;;;;;9.55;5.78;;;;;;;2.41;100.00;96118.50;5070723;28;20067;-74
2023/04/03 08:36:15;;;;;;;9.00;5.60;;;;;;;2.36;100.00;96123.50;5069095;28;20092;-72
2023/04/03 08:38:41;;;;;;;13.73;6.03;;;;;;;2.27;100.00;96124.72;5069146;28;20056;-73
2023/04/03 08:41:21;;;;;;;8.13;5.32;;;;;;;2.30;100.00;96127.72;5065246;28;20064;-73
2023/04/03 08:44:01;;;;;;;13.02;5.93;;;;;;;2.34;100.00;96122.91;5046267;28;20044;-74
2023/04/03 08:47:12;;;;;;;11.23;5.13;;;;;;;2.44;100.00;96128.47;5054347;28;20041;-74
2023/04/03 08:49:46;;;;;;;13.57;5.07;;;;;;;2.45;100.00;96124.88;5035961;28;20064;-74
2023/04/03 08:52:28;;;;;;;9.73;5.25;;;;;;;2.56;100.00;96132.06;5040852;28;20052;-74
2023/04/03 08:54:57;;;;;;;11.20;5.47;;;;;;;2.54;100.00;96134.09;5034495;28;20111;-75
2023/04/03 08:57:32;;;;;;;8.50;4.53;;;;;;;2.58;100.00;96137.84;5041706;28;20129;-74
2023/04/03 09:00:16;;;;;;;8.75;5.72;;;;;;;2.57;100.00;96133.69;5039151;28;20416;-75
2023/04/03 09:02:46;;;;;;;11.48;5.13;;;;;;;2.73;100.00;96131.63;5042787;28;20036;-75
2023/04/03 09:05:20;;;;;;;8.50;5.13;;;;;;;2.80;100.00;96132.41;5044934;28;20041;-75
2023/04/03 09:08:00;;;;;;;8.90;5.47;;;;;;;2.79;100.00;96130.81;5036149;28;20456;-74
2023/04/03 09:10:33;;;;;;;7.53;5.18;;;;;;;3.08;100.00;96128.72;5031793;28;20044;-75
2023/04/03 09:13:11;;;;;;;7.05;4.47;;;;;;;3.35;100.00;96136.41;5040961;28;20052;-75
2023/04/03 09:15:37;;;;;;;9.13;5.10;;;;;;;3.36;100.00;96140.59;5041067;28;20496;-75
2023/04/03 09:18:11;;;;;;;8.95;5.38;;;;;;;3.31;100.00;96132.63;5040664;28;20103;-75
2023/04/03 09:20:55;;;;;;;;;;;;;;;3.23;100.00;96137.06;5047069;28;20042;-75
2023/04/03 09:23:46;;;;;;;7.50;4.80;;;;;;;3.10;100.00;96131.91;5037457;28;20410;-75
2023/04/03 09:26:21;;;;;;;12.85;4.90;;;;;;;3.56;100.00;96136.09;5045627;28;20044;-74
2023/04/03 09:28:47;;;;;;;7.57;4.47;;;;;;;3.34;100.00;96127.81;5035966;28;20417;-74
2023/04/03 09:31:27;;;;;;;7.13;4.60;;;;;;;3.54;100.00;96127.69;5032225;28;20040;-74
2023/04/03 09:33:59;;;;;;;8.35;4.95;;;;;;;3.77;100.00;96126.34;5038627;28;20139;-74
2023/04/03 09:36:51;;;;;;;9.88;4.57;;;;;;;4.01;100.00;96123.97;5046918;28;20041;-74
2023/04/03 09:39:22;;;;;;;7.00;4.53;;;;;;;3.83;100.00;96119.50;5038864;28;20040;-74
2023/04/03 09:42:03;;;;;;;9.45;4.25;;;;;;;4.13;100.00;96124.88;5035876;28;21035;-74
2023/04/03 09:44:38;;;;;;;6.70;4.45;;;;;;;3.81;100.00;96124.94;5040437;28;20037;-74
2023/04/03 09:47:24;;;;;;;6.40;4.03;;;;;;;3.84;100.00;96121.91;5039072;28;20045;-74
2023/04/03 09:49:49;;;;;;;7.15;4.28;;;;;;;3.60;100.00;96126.06;5039991;28;20042;-74
2023/04/03 09:52:26;;;;;;;8.23;4.50;;;;;;;3.58;100.00;96126.28;5040045;28;20036;-74
2023/04/03 09:54:52;;;;;;;6.95;4.68;;;;;;;3.41;100.00;96127.78;5034358;28;20034;-73
2023/04/03 09:57:18;;;;;;;6.78;4.28;;;;;;;3.39;100.00;96129.78;5038000;28;20508;-74
2023/04/03 09:59:46;;;;;;;9.52;4.75;;;;;;;3.39;100.00;96127.16;5037318;28;20564;-73
2023/04/03 10:02:14;;;;;;;9.55;4.65;;;;;;;3.28;100.00;96124.22;5040884;28;20041;-76
2023/04/03 10:04:41;;;;;;;10.57;5.00;;;;;;;3.34;100.00;96127.00;5035581;28;20153;-75
2023/04/03 10:07:46;;;;;;;6.35;4.20;;;;;;;3.29;100.00;96131.03;5055673;28;20038;-74
2023/04/03 10:10:14;;;;;;;7.13;3.97;;;;;;;3.34;100.00;96121.81;5013192;28;20050;-74
2023/04/03 10:12:40;;;;;;;7.00;3.97;;;;;;;3.21;100.00;96118.25;5022459;28;20049;-75
2023/04/03 10:15:18;;;;;;;8.15;4.25;;;;;;;3.28;100.00;96129.44;5024234;28;20056;-75
2023/04/03 10:18:12;;;;;;;7.38;3.90;;;;;;;3.33;100.00;96125.41;5051493;28;20049;-75
2023/04/03 10:20:38;;;;;;;7.13;4.07;;;;;;;2.88;100.00;96113.97;5045340;28;20636;-75
2023/04/03 10:23:28;;;;;;;8.68;4.75;;;;;;;3.03;100.00;96125.94;5038995;28;20045;-75
2023/04/03 10:26:23;;;;;;;10.52;4.40;;;;;;;2.92;100.00;96120.38;5034967;28;20048;-75
2023/04/03 10:29:16;;;;;;;7.72;4.75;;;;;;;2.97;100.00;96131.97;5048754;28;20037;-75
2023/04/03 10:31:50;;;;;;;8.35;4.82;;;;;;;2.87;100.00;96122.78;5038146;28;20087;-75
2023/04/03 10:34:28;;;;;;;8.23;5.07;;;;;;;2.94;100.00;96123.59;5036371;28;20095;-76
2023/04/03 10:37:18;;;;;;;7.53;4.65;;;;;;;3.03;100.00;96125.94;5033278;28;20045;-75
2023/04/03 10:40:13;;;;;;;6.63;4.15;;;;;;;3.16;100.00;96125.91;5045393;28;20040;-74
2023/04/03 10:42:52;;;;;;;7.30;4.78;;;;;;;3.45;100.00;96124.53;5034424;28;20037;-73
2023/04/03 10:45:21;;;;;;;6.95;4.57;;;;;;;3.47;100.00;96126.94;5036485;28;20520;-74
2023/04/03 10:48:13;;;;;;;7.90;4.25;;;;;;;3.35;100.00;96128.59;5035604;28;20392;-73
2023/04/03 10:51:00;;;;;;;8.27;4.32;;;;;;;3.03;100.00;96133.72;5040369;28;20520;-74
2023/04/03 10:53:39;;;;;;;7.65;4.63;;;;;;;2.79;100.00;96136.03;5042859;28;20227;-74
2023/04/03 10:56:35;;;;;;;5.85;3.63;;;;;;;2.36;100.00;96131.31;5052236;28;20045;-74
2023/04/03 10:59:23;;;;;;;7.32;3.85;;;;;;;2.07;100.00;96133.31;5040831;28;20084;-74
2023/04/03 11:01:55;;;;;;;6.93;4.00;;;;;;;2.08;100.00;96134.91;5042068;28;20488;-74
2023/04/03 11:04:25;;;;;;;8.80;4.47;;;;;;;2.30;100.00;96137.28;5042001;28;20520;-74
2023/04/03 11:07:01;;;;;;;9.07;4.10;;;;;;;2.24;100.00;96134.50;5046000;28;20033;-74
2023/04/03 11:09:31;;;;;;;7.68;4.15;;;;;;;2.34;100.00;96135.88;5033591;28;20041;-74
2023/04/03 11:12:29;;;;;;;10.15;4.63;;;;;;;2.28;100.00;96126.31;5034148;28;20034;-74
2023/04/03 11:14:56;;;;;;;7.55;4.18;;;;;;;2.56;100.00;96126.88;5044031;28;20182;-75
2023/04/03 11:17:37;;;;;;;6.80;4.05;;;;;;;2.70;100.00;96127.66;5034270;28;20045;-74
2023/04/03 11:20:21;;;;;;;8.43;4.63;;;;;;;2.69;100.00;96120.06;5038400;28;20488;-74
2023/04/03 11:23:17;;;;;;;6.83;3.97;;;;;;;2.85;100.00;96114.41;5049815;28;20047;-74
2023/04/03 11:25:45;;;;;;;5.72;4.10;;;;;;;2.78;100.00;96118.81;5053072;28;20037;-74
2023/04/03 11:28:13;;;;;;;7.93;3.70;;;;;;;2.97;100.00;96117.16;5065917;28;20068;-74
2023/04/03 11:31:09;;;;;;;5.70;3.50;;;;;;;2.88;100.00;96116.59;5051465;28;20045;-74
2023/04/03 11:34:11;;;;;;;6.95;3.17;;;;;;;2.82;100.00;96114.03;5049250;28;20049;-74
2023/04/03 11:36:48;;;;;;;5.53;3.05;;;;;;;3.03;100.00;96110.31;5033975;28;20913;-74
2023/04/03 11:39:20;;;;;;;5.80;3.05;;;;;;;3.27;100.00;96106.22;5045620;28;20513;-73